sensor_id;sensor_type;location;lat;lon;timestamp;pressure;altitude;pressure_sealevel;temperature;humidity
11349;BME280;5729;43.570;27.826;2023-04-12T00:01:02;97676.16;;;8.53;100.00
11349;BME280;5729;43.570;27.826;2023-04-12T00:03:27;97679.94;;;8.45;100.00
11349;BME280;5729;43.570;27.826;2023-04-12T00:05:53;97687.22;;;8.45;100.00
11349;BME280;5729;43.570;27.826;2023-04-12T00:08:22;97675.34;;;8.49;100.00
11349;BME280;5729;43.570;27.826;2023-04-12T00:10:57;97687.69;;;8.57;100.00
11349;BME280;5729;43.570;27.826;2023-04-12T00:13:23;97681.06;;;8.41;100.00
11349;BME280;5729;43.570;27.826;2023-04-12T00:15:48;97677.59;;;8.40;100.00
11349;BME280;5729;43.570;27.826;2023-04-12T00:18:14;97666.53;;;8.49;100.00
11349;BME280;5729;43.570;27.826;2023-04-12T00:20:39;97666.84;;;8.33;100.00
11349;BME280;5729;43.570;27.826;2023-04-12T00:23:05;97668.41;;;8.41;100.00
11349;BME280;5729;43.570;27.826;2023-04-12T00:25:30;97669.22;;;8.45;100.00
11349;BME280;5729;43.570;27.826;2023-04-12T00:27:56;97674.56;;;8.42;100.00
11349;BME280;5729;43.570;27.826;2023-04-12T00:30:22;97672.91;;;8.30;100.00
11349;BME280;5729;43.570;27.826;2023-04-12T00:32:48;97672.91;;;8.30;100.00
11349;BME280;5729;43.570;27.826;2023-04-12T00:35:14;97670.69;;;8.39;100.00
11349;BME280;5729;43.570;27.826;2023-04-12T00:37:39;97677.94;;;8.31;100.00
11349;BME280;5729;43.570;27.826;2023-04-12T00:40:05;97672.97;;;8.37;100.00
11349;BME280;5729;43.570;27.826;2023-04-12T00:42:35;97664.06;;;8.22;100.00
11349;BME280;5729;43.570;27.826;2023-04-12T00:45:01;97673.75;;;8.34;100.00
11349;BME280;5729;43.570;27.826;2023-04-12T00:47:27;97675.28;;;8.38;100.00
11349;BME280;5729;43.570;27.826;2023-04-12T00:49:54;97671.75;;;8.27;100.00
11349;BME280;5729;43.570;27.826;2023-04-12T00:52:20;97658.25;;;8.17;100.00
11349;BME280;5729;43.570;27.826;2023-04-12T00:54:46;97667.53;;;8.23;100.00
11349;BME280;5729;43.570;27.826;2023-04-12T00:57:12;97669.06;;;8.24;100.00
11349;BME280;5729;43.570;27.826;2023-04-12T00:59:38;97671.44;;;8.32;100.00
11349;BME280;5729;43.570;27.826;2023-04-12T01:02:03;97665.22;;;8.21;100.00
11349;BME280;5729;43.570;27.826;2023-04-12T01:04:29;97664.06;;;8.26;100.00
11349;BME280;5729;43.570;27.826;2023-04-12T01:07:04;97676.44;;;8.37;100.00
11349;BME280;5729;43.570;27.826;2023-04-12T01:15:06;97677.59;;;8.40;100.00
11349;BME280;5729;43.570;27.826;2023-04-12T01:17:55;97670.56;;;8.25;100.00
11349;BME280;5729;43.570;27.826;2023-04-12T01:20:28;97654.19;;;8.37;100.00
11349;BME280;5729;43.570;27.826;2023-04-12T01:23:11;97660.72;;;8.40;100.00
11349;BME280;5729;43.570;27.826;2023-04-12T01:25:56;97654.56;;;8.32;100.00
11349;BME280;5729;43.570;27.826;2023-04-12T01:28:36;97647.28;;;8.36;100.00
11349;BME280;5729;43.570;27.826;2023-04-12T01:31:02;97652.66;;;8.36;100.00
11349;BME280;5729;43.570;27.826;2023-04-12T01:33:29;97650.00;;;8.43;100.00
11349;BME280;5729;43.570;27.826;2023-04-12T01:35:59;97643.47;;;8.41;100.00
11349;BME280;5729;43.570;27.826;2023-04-12T01:38:26;97642.38;;;8.45;100.00
11349;BME280;5729;43.570;27.826;2023-04-12T01:40:53;97637.72;;;8.42;100.00
11349;BME280;5729;43.570;27.826;2023-04-12T01:43:19;97651.53;;;8.41;100.00
11349;BME280;5729;43.570;27.826;2023-04-12T01:45:45;97651.13;;;8.38;100.00
11349;BME280;5729;43.570;27.826;2023-04-12T01:48:11;97655.81;;;8.52;100.00
11349;BME280;5729;43.570;27.826;2023-04-12T01:53:59;97654.25;;;8.51;100.00
11349;BME280;5729;43.570;27.826;2023-04-12T01:56:29;97648.13;;;8.51;100.00
11349;BME280;5729;43.570;27.826;2023-04-12T01:58:56;97658.50;;;8.52;100.00
11349;BME280;5729;43.570;27.826;2023-04-12T02:01:23;97656.16;;;8.47;100.00
11349;BME280;5729;43.570;27.826;2023-04-12T02:03:50;97660.75;;;8.47;100.00
11349;BME280;5729;43.570;27.826;2023-04-12T02:06:18;97660.38;;;8.48;100.00
11349;BME280;5729;43.570;27.826;2023-04-12T02:08:47;97650.78;;;8.47;100.00
11349;BME280;5729;43.570;27.826;2023-04-12T02:11:13;97647.63;;;8.31;100.00
11349;BME280;5729;43.570;27.826;2023-04-12T02:13:39;97649.28;;;8.46;100.00
11349;BME280;5729;43.570;27.826;2023-04-12T02:16:06;97646.19;;;8.48;100.00
11349;BME280;5729;43.570;27.826;2023-04-12T02:18:34;97656.16;;;8.44;100.00
11349;BME280;5729;43.570;27.826;2023-04-12T02:21:00;97651.50;;;8.33;100.00
11349;BME280;5729;43.570;27.826;2023-04-12T02:23:25;97647.72;;;8.49;100.00
11349;BME280;5729;43.570;27.826;2023-04-12T02:25:51;97653.91;;;8.53;100.00
11349;BME280;5729;43.570;27.826;2023-04-12T02:28:16;97661.19;;;8.59;100.00
11349;BME280;5729;43.570;27.826;2023-04-12T02:30:42;97663.84;;;8.45;100.00
11349;BME280;5729;43.570;27.826;2023-04-12T02:33:07;97662.72;;;8.53;100.00
11349;BME280;5729;43.570;27.826;2023-04-12T02:35:37;97659.09;;;8.28;100.00
11349;BME280;5729;43.570;27.826;2023-04-12T02:38:03;97655.47;;;8.02;100.00
11349;BME280;5729;43.570;27.826;2023-04-12T02:40:38;97657.09;;;8.11;100.00
11349;BME280;5729;43.570;27.826;2023-04-12T02:43:08;97660.16;;;8.13;100.00
11349;BME280;5729;43.570;27.826;2023-04-12T02:45:33;97661.34;;;8.19;100.00
11349;BME280;5729;43.570;27.826;2023-04-12T02:47:59;97666.69;;;8.15;100.00
11349;BME280;5729;43.570;27.826;2023-04-12T02:50:25;97662.09;;;8.16;100.00
11349;BME280;5729;43.570;27.826;2023-04-12T02:52:50;97665.53;;;8.16;100.00
11349;BME280;5729;43.570;27.826;2023-04-12T02:55:15;97665.59;;;8.27;100.00
11349;BME280;5729;43.570;27.826;2023-04-12T02:57:43;97669.06;;;8.24;100.00
11349;BME280;5729;43.570;27.826;2023-04-12T03:00:09;97659.06;;;8.24;100.00
11349;BME280;5729;43.570;27.826;2023-04-12T03:02:39;97664.41;;;8.17;100.00
11349;BME280;5729;43.570;27.826;2023-04-12T03:05:05;97668.81;;;8.43;100.00
11349;BME280;5729;43.570;27.826;2023-04-12T03:07:32;97663.47;;;8.50;100.00
11349;BME280;5729;43.570;27.826;2023-04-12T03:09:57;97667.00;;;8.65;100.00
11349;BME280;5729;43.570;27.826;2023-04-12T03:12:23;97672.72;;;8.60;100.00
11349;BME280;5729;43.570;27.826;2023-04-12T03:14:48;97665.06;;;8.62;100.00
11349;BME280;5729;43.570;27.826;2023-04-12T03:17:14;97669.28;;;8.70;100.00
11349;BME280;5729;43.570;27.826;2023-04-12T03:19:40;97671.56;;;8.57;100.00
11349;BME280;5729;43.570;27.826;2023-04-12T03:22:05;97663.13;;;8.55;100.00
11349;BME280;5729;43.570;27.826;2023-04-12T03:24:31;97674.13;;;8.36;100.00
11349;BME280;5729;43.570;27.826;2023-04-12T03:27:03;97668.44;;;8.48;100.00
11349;BME280;5729;43.570;27.826;2023-04-12T03:29:29;97674.19;;;8.50;100.00
11349;BME280;5729;43.570;27.826;2023-04-12T03:31:58;97674.59;;;8.52;100.00
11349;BME280;5729;43.570;27.826;2023-04-12T03:34:27;97677.69;;;8.54;100.00
11349;BME280;5729;43.570;27.826;2023-04-12T03:36:59;97667.34;;;8.60;100.00
11349;BME280;5729;43.570;27.826;2023-04-12T03:39:25;97676.53;;;8.55;100.00
11349;BME280;5729;43.570;27.826;2023-04-12T03:41:50;97674.59;;;8.52;100.00
11349;BME280;5729;43.570;27.826;2023-04-12T03:44:17;97684.19;;;8.53;100.00
11349;BME280;5729;43.570;27.826;2023-04-12T03:46:43;97694.91;;;8.50;100.00
11349;BME280;5729;43.570;27.826;2023-04-12T03:49:08;97692.16;;;8.39;100.00
11349;BME280;5729;43.570;27.826;2023-04-12T03:51:34;97688.44;;;8.54;100.00
11349;BME280;5729;43.570;27.826;2023-04-12T03:53:59;97695.69;;;8.50;100.00
11349;BME280;5729;43.570;27.826;2023-04-12T03:56:26;97688.81;;;8.56;100.00
11349;BME280;5729;43.570;27.826;2023-04-12T03:58:52;97688.75;;;8.42;100.00
11349;BME280;5729;43.570;27.826;2023-04-12T04:01:18;97682.66;;;8.52;100.00
11349;BME280;5729;43.570;27.826;2023-04-12T04:03:44;97687.72;;;8.64;100.00
11349;BME280;5729;43.570;27.826;2023-04-12T04:06:10;97675.41;;;8.56;100.00
11349;BME280;5729;43.570;27.826;2023-04-12T04:08:36;97675.44;;;8.70;100.00
11349;BME280;5729;43.570;27.826;2023-04-12T04:11:02;97684.22;;;8.57;100.00
11349;BME280;5729;43.570;27.826;2023-04-12T04:13:27;97680.78;;;8.56;100.00
11349;BME280;5729;43.570;27.826;2023-04-12T04:16:02;97685.34;;;8.52;100.00
11349;BME280;5729;43.570;27.826;2023-04-12T04:18:28;97691.03;;;8.40;100.00
11349;BME280;5729;43.570;27.826;2023-04-12T04:20:54;97699.88;;;8.44;100.00
11349;BME280;5729;43.570;27.826;2023-04-12T04:23:19;97698.75;;;8.49;100.00
11349;BME280;5729;43.570;27.826;2023-04-12T04:25:46;97708.00;;;8.58;100.00
11349;BME280;5729;43.570;27.826;2023-04-12T04:28:11;97699.09;;;8.44;100.00
11349;BME280;5729;43.570;27.826;2023-04-12T04:30:40;97709.06;;;8.47;100.00
11349;BME280;5729;43.570;27.826;2023-04-12T04:33:05;97709.84;;;8.44;100.00
11349;BME280;5729;43.570;27.826;2023-04-12T04:35:31;97701.38;;;8.38;100.00
11349;BME280;5729;43.570;27.826;2023-04-12T04:37:56;97717.91;;;8.47;100.00
11349;BME280;5729;43.570;27.826;2023-04-12T04:40:22;97719.47;;;8.52;100.00
11349;BME280;5729;43.570;27.826;2023-04-12T04:42:49;97713.69;;;8.46;100.00
11349;BME280;5729;43.570;27.826;2023-04-12T04:45:23;97725.63;;;8.52;100.00
11349;BME280;5729;43.570;27.826;2023-04-12T04:47:52;97716.69;;;8.37;100.00
11349;BME280;5729;43.570;27.826;2023-04-12T04:50:21;97721.38;;;8.51;100.00
11349;BME280;5729;43.570;27.826;2023-04-12T04:52:48;97715.63;;;8.49;100.00
11349;BME280;5729;43.570;27.826;2023-04-12T04:55:13;97706.72;;;8.38;100.00
11349;BME280;5729;43.570;27.826;2023-04-12T04:57:40;97712.16;;;8.49;100.00
11349;BME280;5729;43.570;27.826;2023-04-12T05:00:06;97704.41;;;8.33;100.00
11349;BME280;5729;43.570;27.826;2023-04-12T05:02:40;97705.63;;;8.43;100.00
11349;BME280;5729;43.570;27.826;2023-04-12T05:05:11;97711.06;;;8.57;100.00
11349;BME280;5729;43.570;27.826;2023-04-12T05:07:57;97692.28;;;8.60;100.00
11349;BME280;5729;43.570;27.826;2023-04-12T05:10:23;97714.53;;;8.57;100.00
11349;BME280;5729;43.570;27.826;2023-04-12T05:12:48;97714.91;;;8.59;100.00
11349;BME280;5729;43.570;27.826;2023-04-12T05:15:14;97716.09;;;8.65;100.00
11349;BME280;5729;43.570;27.826;2023-04-12T05:17:39;97705.75;;;8.67;100.00
11349;BME280;5729;43.570;27.826;2023-04-12T05:20:05;97711.91;;;8.71;100.00
11349;BME280;5729;43.570;27.826;2023-04-12T05:22:33;97700.03;;;8.76;100.00
11349;BME280;5729;43.570;27.826;2023-04-12T05:24:58;97700.81;;;8.84;100.00
11349;BME280;5729;43.570;27.826;2023-04-12T05:27:24;97686.63;;;8.80;100.00
11349;BME280;5729;43.570;27.826;2023-04-12T05:29:52;97697.38;;;8.80;100.00
11349;BME280;5729;43.570;27.826;2023-04-12T05:32:18;97698.91;;;8.84;100.00
11349;BME280;5729;43.570;27.826;2023-04-12T05:34:43;97702.75;;;8.83;100.00
11349;BME280;5729;43.570;27.826;2023-04-12T05:37:09;97702.28;;;8.63;100.00
11349;BME280;5729;43.570;27.826;2023-04-12T05:39:34;97714.25;;;8.80;100.00
11349;BME280;5729;43.570;27.826;2023-04-12T05:41:59;97713.88;;;8.82;100.00
11349;BME280;5729;43.570;27.826;2023-04-12T05:44:25;97711.25;;;9.03;100.00
11349;BME280;5729;43.570;27.826;2023-04-12T05:46:50;97710.50;;;9.02;100.00
11349;BME280;5729;43.570;27.826;2023-04-12T05:49:16;97710.53;;;9.09;100.00
11349;BME280;5729;43.570;27.826;2023-04-12T05:51:41;97721.31;;;9.13;100.00
11349;BME280;5729;43.570;27.826;2023-04-12T05:54:07;97718.28;;;9.32;100.00
11349;BME280;5729;43.570;27.826;2023-04-12T05:56:33;97714.78;;;9.28;100.00
11349;BME280;5729;43.570;27.826;2023-04-12T05:58:58;97694.88;;;9.43;100.00
11349;BME280;5729;43.570;27.826;2023-04-12T06:01:27;97705.66;;;9.79;100.00
11349;BME280;5729;43.570;27.826;2023-04-12T06:03:59;97702.56;;;9.73;100.00
11349;BME280;5729;43.570;27.826;2023-04-12T06:06:30;97701.81;;;10.05;100.00
11349;BME280;5729;43.570;27.826;2023-04-12T06:08:56;97704.88;;;10.07;100.00
11349;BME280;5729;43.570;27.826;2023-04-12T06:11:25;97697.19;;;10.05;100.00
11349;BME280;5729;43.570;27.826;2023-04-12T06:13:50;97689.13;;;10.27;100.00
11349;BME280;5729;43.570;27.826;2023-04-12T06:16:16;97705.25;;;10.16;100.00
11349;BME280;5729;43.570;27.826;2023-04-12T06:18:41;97694.50;;;10.12;100.00
11349;BME280;5729;43.570;27.826;2023-04-12T06:21:07;97689.13;;;10.09;100.00
11349;BME280;5729;43.570;27.826;2023-04-12T06:23:32;97689.91;;;10.24;100.00
11349;BME280;5729;43.570;27.826;2023-04-12T06:25:58;97684.88;;;10.29;100.00
11349;BME280;5729;43.570;27.826;2023-04-12T06:28:23;97695.63;;;10.47;100.00
11349;BME280;5729;43.570;27.826;2023-04-12T06:30:49;97688.75;;;10.21;100.00
11349;BME280;5729;43.570;27.826;2023-04-12T06:33:14;97685.66;;;9.87;100.00
11349;BME280;5729;43.570;27.826;2023-04-12T06:35:40;97692.56;;;10.06;100.00
11349;BME280;5729;43.570;27.826;2023-04-12T06:38:05;97695.28;;;10.20;100.00
11349;BME280;5729;43.570;27.826;2023-04-12T06:40:31;97695.66;;;9.83;100.00
11349;BME280;5729;43.570;27.826;2023-04-12T06:42:58;97696.44;;;9.87;100.00
11349;BME280;5729;43.570;27.826;2023-04-12T06:45:24;97692.97;;;9.83;100.00
11349;BME280;5729;43.570;27.826;2023-04-12T06:47:50;97699.13;;;9.87;100.00
11349;BME280;5729;43.570;27.826;2023-04-12T06:50:15;97701.81;;;9.76;100.00
11349;BME280;5729;43.570;27.826;2023-04-12T06:52:42;97700.66;;;9.74;100.00
11349;BME280;5729;43.570;27.826;2023-04-12T06:55:08;97696.44;;;9.80;100.00
11349;BME280;5729;43.570;27.826;2023-04-12T06:57:33;97697.97;;;9.77;100.00
11349;BME280;5729;43.570;27.826;2023-04-12T06:59:59;97706.44;;;9.90;100.00
11349;BME280;5729;43.570;27.826;2023-04-12T07:02:25;97710.66;;;10.05;100.00
11349;BME280;5729;43.570;27.826;2023-04-12T07:04:51;97691.81;;;10.09;100.00
11349;BME280;5729;43.570;27.826;2023-04-12T07:07:17;97702.94;;;10.46;100.00
11349;BME280;5729;43.570;27.826;2023-04-12T07:09:45;97706.00;;;10.59;100.00
11349;BME280;5729;43.570;27.826;2023-04-12T07:12:11;97705.59;;;10.53;100.00
11349;BME280;5729;43.570;27.826;2023-04-12T07:14:37;97709.38;;;10.77;100.00
11349;BME280;5729;43.570;27.826;2023-04-12T07:17:02;97705.97;;;10.63;100.00
11349;BME280;5729;43.570;27.826;2023-04-12T07:19:28;97706.72;;;10.63;100.00
11349;BME280;5729;43.570;27.826;2023-04-12T07:21:55;97712.53;;;10.58;100.00
11349;BME280;5729;43.570;27.826;2023-04-12T07:24:21;97702.47;;;10.76;100.00
11349;BME280;5729;43.570;27.826;2023-04-12T07:26:46;97717.09;;;10.82;100.00
11349;BME280;5729;43.570;27.826;2023-04-12T07:29:12;97715.78;;;11.15;100.00
11349;BME280;5729;43.570;27.826;2023-04-12T07:31:37;97719.16;;;11.30;100.00
11349;BME280;5729;43.570;27.826;2023-04-12T07:34:03;97717.22;;;11.38;100.00
11349;BME280;5729;43.570;27.826;2023-04-12T07:36:28;97716.84;;;11.36;100.00
11349;BME280;5729;43.570;27.826;2023-04-12T07:38:54;97709.97;;;11.20;100.00
11349;BME280;5729;43.570;27.826;2023-04-12T07:41:20;97733.47;;;11.27;100.00
11349;BME280;5729;43.570;27.826;2023-04-12T07:43:46;97717.00;;;10.97;100.00
11349;BME280;5729;43.570;27.826;2023-04-12T07:46:11;97718.94;;;10.96;100.00
11349;BME280;5729;43.570;27.826;2023-04-12T07:48:37;97715.84;;;11.01;100.00
11349;BME280;5729;43.570;27.826;2023-04-12T07:51:03;97726.69;;;10.90;100.00
11349;BME280;5729;43.570;27.826;2023-04-12T07:53:28;97718.31;;;10.57;100.00
11349;BME280;5729;43.570;27.826;2023-04-12T07:55:54;97725.69;;;10.24;100.00
11349;BME280;5729;43.570;27.826;2023-04-12T07:58:22;97727.22;;;10.22;100.00
11349;BME280;5729;43.570;27.826;2023-04-12T08:00:48;97724.88;;;10.27;100.00
11349;BME280;5729;43.570;27.826;2023-04-12T08:03:16;97726.06;;;10.23;100.00
11349;BME280;5729;43.570;27.826;2023-04-12T08:05:42;97731.06;;;10.24;100.00
11349;BME280;5729;43.570;27.826;2023-04-12T08:08:08;97727.19;;;10.36;100.00
11349;BME280;5729;43.570;27.826;2023-04-12T08:10:38;97729.09;;;10.53;100.00
11349;BME280;5729;43.570;27.826;2023-04-12T08:13:04;97729.09;;;10.53;100.00
11349;BME280;5729;43.570;27.826;2023-04-12T08:15:30;97727.13;;;10.64;100.00
11349;BME280;5729;43.570;27.826;2023-04-12T08:17:56;97718.31;;;10.53;100.00
11349;BME280;5729;43.570;27.826;2023-04-12T08:20:21;97724.09;;;10.41;100.00
11349;BME280;5729;43.570;27.826;2023-04-12T08:22:48;97715.19;;;10.62;100.00
11349;BME280;5729;43.570;27.826;2023-04-12T08:25:13;97721.88;;;11.30;100.00
11349;BME280;5729;43.570;27.826;2023-04-12T08:27:42;97724.22;;;11.87;100.00
11349;BME280;5729;43.570;27.826;2023-04-12T08:30:09;97714.06;;;12.05;100.00
11349;BME280;5729;43.570;27.826;2023-04-12T08:32:35;97713.63;;;11.58;100.00
11349;BME280;5729;43.570;27.826;2023-04-12T08:35:02;97715.09;;;11.67;100.00
11349;BME280;5729;43.570;27.826;2023-04-12T08:37:27;97703.53;;;11.70;100.00
11349;BME280;5729;43.570;27.826;2023-04-12T08:39:53;97709.66;;;11.77;100.00
11349;BME280;5729;43.570;27.826;2023-04-12T08:42:18;97715.03;;;11.84;100.00
11349;BME280;5729;43.570;27.826;2023-04-12T08:44:44;97713.19;;;12.19;100.00
11349;BME280;5729;43.570;27.826;2023-04-12T08:47:10;97702.44;;;12.87;100.00
11349;BME280;5729;43.570;27.826;2023-04-12T08:49:36;97701.97;;;13.26;100.00
11349;BME280;5729;43.570;27.826;2023-04-12T08:52:04;97699.41;;;12.81;100.00
11349;BME280;5729;43.570;27.826;2023-04-12T08:54:33;97698.75;;;12.73;100.00
11349;BME280;5729;43.570;27.826;2023-04-12T08:57:03;97705.84;;;12.57;100.00
11349;BME280;5729;43.570;27.826;2023-04-12T08:59:31;97713.88;;;12.30;100.00
11349;BME280;5729;43.570;27.826;2023-04-12T09:01:58;97705.91;;;12.12;100.00
11349;BME280;5729;43.570;27.826;2023-04-12T09:04:24;97712.94;;;12.03;100.00
11349;BME280;5729;43.570;27.826;2023-04-12T09:06:54;97719.72;;;11.70;100.00
11349;BME280;5729;43.570;27.826;2023-04-12T09:09:45;97722.28;;;11.25;100.00
11349;BME280;5729;43.570;27.826;2023-04-12T09:12:12;97725.38;;;11.27;100.00
11349;BME280;5729;43.570;27.826;2023-04-12T09:14:39;97723.38;;;11.38;100.00
11349;BME280;5729;43.570;27.826;2023-04-12T09:17:20;97736.81;;;11.49;100.00
11349;BME280;5729;43.570;27.826;2023-04-12T09:19:45;97734.13;;;11.45;100.00
11349;BME280;5729;43.570;27.826;2023-04-12T09:22:11;97738.47;;;11.25;100.00
11349;BME280;5729;43.570;27.826;2023-04-12T09:24:50;97732.25;;;11.35;100.00
11349;BME280;5729;43.570;27.826;2023-04-12T09:27:17;97749.31;;;11.07;100.00
11349;BME280;5729;43.570;27.826;2023-04-12T09:29:46;97720.44;;;11.08;100.00
11349;BME280;5729;43.570;27.826;2023-04-12T09:32:24;97737.75;;;11.14;100.00
11349;BME280;5729;43.570;27.826;2023-04-12T09:34:55;97739.81;;;10.81;100.00
11349;BME280;5729;43.570;27.826;2023-04-12T09:37:22;97737.84;;;10.93;100.00
11349;BME280;5729;43.570;27.826;2023-04-12T09:39:58;97742.31;;;11.24;100.00
11349;BME280;5729;43.570;27.826;2023-04-12T09:42:23;97746.94;;;11.27;100.00
11349;BME280;5729;43.570;27.826;2023-04-12T09:44:49;97750.16;;;10.94;100.00
11349;BME280;5729;43.570;27.826;2023-04-12T09:47:14;97745.16;;;10.92;100.00
11349;BME280;5729;43.570;27.826;2023-04-12T09:49:41;97736.72;;;10.83;100.00
11349;BME280;5729;43.570;27.826;2023-04-12T09:52:09;97742.44;;;10.96;100.00
11349;BME280;5729;43.570;27.826;2023-04-12T09:54:46;97736.63;;;11.04;100.00
11349;BME280;5729;43.570;27.826;2023-04-12T09:57:16;97734.38;;;10.92;100.00
11349;BME280;5729;43.570;27.826;2023-04-12T09:59:43;97734.72;;;11.05;100.00
11349;BME280;5729;43.570;27.826;2023-04-12T10:02:17;97738.50;;;11.18;100.00
11349;BME280;5729;43.570;27.826;2023-04-12T10:04:44;97732.31;;;11.28;100.00
11349;BME280;5729;43.570;27.826;2023-04-12T10:07:10;97741.56;;;11.23;100.00
11349;BME280;5729;43.570;27.826;2023-04-12T10:09:37;97735.78;;;11.25;100.00
11349;BME280;5729;43.570;27.826;2023-04-12T10:12:04;97733.47;;;11.27;100.00
11349;BME280;5729;43.570;27.826;2023-04-12T10:14:30;97738.41;;;11.36;100.00
11349;BME280;5729;43.570;27.826;2023-04-12T10:16:57;97746.66;;;10.97;100.00
11349;BME280;5729;43.570;27.826;2023-04-12T10:19:24;97749.34;;;10.97;100.00
11349;BME280;5729;43.570;27.826;2023-04-12T10:21:50;97741.66;;;11.06;100.00
11349;BME280;5729;43.570;27.826;2023-04-12T10:24:16;97749.00;;;10.84;100.00
11349;BME280;5729;43.570;27.826;2023-04-12T10:26:42;97740.97;;;10.63;100.00
11349;BME280;5729;43.570;27.826;2023-04-12T10:31:46;97747.47;;;10.94;100.00
11349;BME280;5729;43.570;27.826;2023-04-12T10:34:12;97752.22;;;11.45;100.00
11349;BME280;5729;43.570;27.826;2023-04-12T10:36:50;97758.28;;;11.63;100.00
11349;BME280;5729;43.570;27.826;2023-04-12T10:39:17;97751.41;;;11.58;100.00
11349;BME280;5729;43.570;27.826;2023-04-12T10:42:15;97742.16;;;11.52;100.00
11349;BME280;5729;43.570;27.826;2023-04-12T10:44:41;97732.59;;;11.44;100.00
11349;BME280;5729;43.570;27.826;2023-04-12T10:47:07;97733.91;;;11.15;100.00
11349;BME280;5729;43.570;27.826;2023-04-12T10:49:34;97740.16;;;12.22;100.00
11349;BME280;5729;43.570;27.826;2023-04-12T10:56:51;97728.09;;;12.30;100.00
11349;BME280;5729;43.570;27.826;2023-04-12T10:59:17;97733.25;;;12.18;100.00
11349;BME280;5729;43.570;27.826;2023-04-12T11:04:34;97741.25;;;11.80;100.00
11349;BME280;5729;43.570;27.826;2023-04-12T11:07:00;97755.06;;;11.93;100.00
11349;BME280;5729;43.570;27.826;2023-04-12T11:09:37;97734.13;;;11.45;100.00
11349;BME280;5729;43.570;27.826;2023-04-12T11:14:46;97752.50;;;11.68;100.00
11349;BME280;5729;43.570;27.826;2023-04-12T11:19:40;97745.91;;;11.73;100.00
11349;BME280;5729;43.570;27.826;2023-04-12T11:22:12;97754.28;;;11.96;100.00
11349;BME280;5729;43.570;27.826;2023-04-12T11:24:39;97735.25;;;12.10;100.00
11349;BME280;5729;43.570;27.826;2023-04-12T11:27:05;97755.69;;;12.11;100.00
11349;BME280;5729;43.570;27.826;2023-04-12T11:29:31;97757.44;;;11.84;100.00
11349;BME280;5729;43.570;27.826;2023-04-12T11:32:03;97748.31;;;11.56;100.00
11349;BME280;5729;43.570;27.826;2023-04-12T11:34:33;97742.28;;;11.31;100.00
11349;BME280;5729;43.570;27.826;2023-04-12T11:36:59;97740.88;;;11.05;100.00
11349;BME280;5729;43.570;27.826;2023-04-12T11:39:28;97748.84;;;11.30;100.00
11349;BME280;5729;43.570;27.826;2023-04-12T11:41:54;97751.38;;;11.62;100.00
11349;BME280;5729;43.570;27.826;2023-04-12T11:44:20;97759.03;;;11.71;100.00
11349;BME280;5729;43.570;27.826;2023-04-12T11:46:47;97740.72;;;11.34;100.00
11349;BME280;5729;43.570;27.826;2023-04-12T11:49:14;97750.75;;;11.33;100.00
11349;BME280;5729;43.570;27.826;2023-04-12T11:51:41;97744.66;;;11.22;100.00
11349;BME280;5729;43.570;27.826;2023-04-12T11:54:06;97759.06;;;10.66;100.00
11349;BME280;5729;43.570;27.826;2023-04-12T11:56:32;97761.38;;;10.81;100.00
11349;BME280;5729;43.570;27.826;2023-04-12T11:58:57;97757.13;;;10.73;100.00
11349;BME280;5729;43.570;27.826;2023-04-12T12:01:23;97770.25;;;10.64;100.00
11349;BME280;5729;43.570;27.826;2023-04-12T12:03:49;97785.28;;;10.40;100.00
11349;BME280;5729;43.570;27.826;2023-04-12T12:06:16;97777.22;;;10.19;100.00
11349;BME280;5729;43.570;27.826;2023-04-12T12:08:42;97788.34;;;10.10;100.00
11349;BME280;5729;43.570;27.826;2023-04-12T12:11:08;97792.91;;;9.78;100.00
11349;BME280;5729;43.570;27.826;2023-04-12T12:13:48;97805.56;;;9.74;100.00
11349;BME280;5729;43.570;27.826;2023-04-12T12:16:14;97796.75;;;9.77;100.00
11349;BME280;5729;43.570;27.826;2023-04-12T12:18:44;97794.06;;;9.84;100.00
11349;BME280;5729;43.570;27.826;2023-04-12T12:21:12;97799.03;;;9.75;100.00
11349;BME280;5729;43.570;27.826;2023-04-12T12:23:37;97802.13;;;9.73;100.00
11349;BME280;5729;43.570;27.826;2023-04-12T12:26:04;97801.75;;;9.75;100.00
11349;BME280;5729;43.570;27.826;2023-04-12T12:28:36;97799.38;;;9.56;100.00
11349;BME280;5729;43.570;27.826;2023-04-12T12:31:17;97807.88;;;9.72;100.00
11349;BME280;5729;43.570;27.826;2023-04-12T12:33:42;97810.97;;;9.84;100.00
11349;BME280;5729;43.570;27.826;2023-04-12T12:36:08;97821.00;;;9.95;100.00
11349;BME280;5729;43.570;27.826;2023-04-12T12:38:40;97817.91;;;9.96;100.00
11349;BME280;5729;43.570;27.826;2023-04-12T12:41:17;97820.97;;;9.84;100.00
11349;BME280;5729;43.570;27.826;2023-04-12T12:43:50;97826.75;;;9.86;100.00
11349;BME280;5729;43.570;27.826;2023-04-12T12:46:17;97817.91;;;9.89;100.00
11349;BME280;5729;43.570;27.826;2023-04-12T12:48:44;97826.38;;;9.80;100.00
11349;BME280;5729;43.570;27.826;2023-04-12T12:51:11;97824.03;;;9.79;100.00
11349;BME280;5729;43.570;27.826;2023-04-12T12:53:40;97826.75;;;9.79;100.00
11349;BME280;5729;43.570;27.826;2023-04-12T12:56:07;97819.03;;;9.74;100.00
11349;BME280;5729;43.570;27.826;2023-04-12T12:58:33;97815.53;;;9.56;100.00
11349;BME280;5729;43.570;27.826;2023-04-12T13:00:59;97823.25;;;9.68;100.00
11349;BME280;5729;43.570;27.826;2023-04-12T13:03:24;97818.63;;;9.65;100.00
11349;BME280;5729;43.570;27.826;2023-04-12T13:05:50;97823.63;;;9.66;100.00
11349;BME280;5729;43.570;27.826;2023-04-12T13:08:16;97829.78;;;9.67;100.00
11349;BME280;5729;43.570;27.826;2023-04-12T13:10:41;97825.94;;;9.68;100.00
11349;BME280;5729;43.570;27.826;2023-04-12T13:13:07;97828.63;;;9.68;100.00
11349;BME280;5729;43.570;27.826;2023-04-12T13:15:32;97825.53;;;9.59;100.00
11349;BME280;5729;43.570;27.826;2023-04-12T13:17:58;97822.44;;;9.60;100.00
11349;BME280;5729;43.570;27.826;2023-04-12T13:20:24;97818.97;;;9.45;100.00